Terminal Aerodrome Forecast
Issued by NWS Upton, NY

Home | Current Version | Previous Version | Text Only | Print | Product List | Glossary On
Versions: 1 2 3 4 5 6 7 8 9 10 11 12 13 14 15 16 17 18 19 20 21 22 23 24 25 26 27 28 29 30 31 32 33
450
FTUS41 KOKX 190529
TAFJFK
TAF
KJFK 190529Z 1906/2012 19019G25KT 6SM -SHRA BR OVC050 WS020/22050KT
     FM190800 20020G34KT 3SM SHRA BR BKN015 OVC035 WS020/22050KT
     FM191200 25022G40KT 6SM -SHRA BR BKN020 OVC040
     FM191500 28023G39KT P6SM BKN040
     FM191900 28023G35KT P6SM SCT050
     FM192300 29018G28KT P6SM SCT050
     FM200600 29016G25KT P6SM FEW050=

USA.gov is the U.S. government's official web portal to all federal, state and local government web resources and services.